createdAt,value
2018-04-19T00:02:15.440Z,11.27
2018-04-19T00:04:42.929Z,11.13
2018-04-19T00:07:10.375Z,10.97
2018-04-19T00:09:37.823Z,10.53
2018-04-19T00:12:05.297Z,10.93
2018-04-19T00:14:32.781Z,13.77
2018-04-19T00:17:00.225Z,10.43
2018-04-19T00:19:27.682Z,11.27
2018-04-19T00:21:55.117Z,10.60
2018-04-19T00:24:22.580Z,11.33
2018-04-19T00:26:50.027Z,12.60
2018-04-19T00:29:17.479Z,14.00
2018-04-19T00:31:44.930Z,10.50
2018-04-19T00:34:12.394Z,10.23
2018-04-19T00:36:39.830Z,9.83
2018-04-19T00:39:07.289Z,9.67
2018-04-19T00:41:34.727Z,10.37
2018-04-19T00:44:02.170Z,11.40
2018-04-19T00:46:30.379Z,12.00
2018-04-19T00:48:57.835Z,10.77
2018-04-19T00:51:25.282Z,11.70
2018-04-19T00:53:52.729Z,10.90
2018-04-19T00:56:20.242Z,11.17
2018-04-19T00:58:48.138Z,10.20
2018-04-19T01:01:16.380Z,11.33
2018-04-19T01:03:43.821Z,10.60
2018-04-19T01:06:11.266Z,9.30
2018-04-19T01:08:38.695Z,9.33
2018-04-19T01:11:06.912Z,9.73
2018-04-19T01:13:34.354Z,10.75
2018-04-19T01:16:01.795Z,11.47
2018-04-19T01:18:29.234Z,10.60
2018-04-19T01:20:57.442Z,9.97
2018-04-19T01:23:24.883Z,9.97
2018-04-19T01:25:53.108Z,10.70
2018-04-19T01:28:20.561Z,11.43
2018-04-19T01:30:48.011Z,11.87
2018-04-19T01:33:15.455Z,11.63
2018-04-19T01:35:54.773Z,10.57
2018-04-19T01:38:22.211Z,11.37
2018-04-19T01:40:50.552Z,10.97
2018-04-19T01:43:17.995Z,11.63
2018-04-19T01:45:47.102Z,11.73
2018-04-19T01:48:14.563Z,11.87
2018-04-19T01:50:42.021Z,11.40
2018-04-19T01:53:10.905Z,13.37
2018-04-19T01:55:38.343Z,13.97
2018-04-19T01:58:05.793Z,12.37
2018-04-19T02:00:33.244Z,11.77
2018-04-19T02:03:00.699Z,13.20
2018-04-19T02:05:28.131Z,11.57
2018-04-19T02:07:57.075Z,13.67
2018-04-19T02:10:24.518Z,12.13
2018-04-19T02:12:51.986Z,17.27
2018-04-19T02:15:19.425Z,13.00
2018-04-19T02:17:46.906Z,11.33
2018-04-19T02:20:14.351Z,11.73
2018-04-19T02:22:41.847Z,20.03
2018-04-19T02:25:09.300Z,14.02
2018-04-19T02:27:36.754Z,11.97
2018-04-19T02:30:04.191Z,12.10
2018-04-19T02:32:31.639Z,13.57
2018-04-19T02:34:59.087Z,13.63
2018-04-19T02:37:26.528Z,13.33
2018-04-19T02:39:54.000Z,12.03
2018-04-19T02:42:21.431Z,12.87
2018-04-19T02:44:48.871Z,12.07
2018-04-19T02:47:17.109Z,12.32
2018-04-19T02:49:44.549Z,12.70
2018-04-19T02:52:11.998Z,10.93
2018-04-19T02:54:39.432Z,12.73
2018-04-19T02:57:06.891Z,11.70
2018-04-19T02:59:35.102Z,12.20
2018-04-19T03:02:02.579Z,13.73
2018-04-19T03:04:30.085Z,12.95
2018-04-19T03:06:58.299Z,12.50
2018-04-19T03:09:25.762Z,16.33
2018-04-19T03:11:53.220Z,18.30
2018-04-19T03:14:20.688Z,13.83
2018-04-19T03:16:48.231Z,12.48
2018-04-19T03:19:15.670Z,13.60
2018-04-19T03:21:43.131Z,13.67
2018-04-19T03:24:10.566Z,13.90
2018-04-19T03:26:38.046Z,14.47
2018-04-19T03:29:05.494Z,16.73
2018-04-19T03:31:32.924Z,13.13
2018-04-19T03:34:01.155Z,12.97
2018-04-19T03:36:28.602Z,13.07
2018-04-19T03:38:56.030Z,13.10
2018-04-19T03:41:23.472Z,12.87
2018-04-19T03:43:51.684Z,12.87
2018-04-19T03:46:19.128Z,12.90
2018-04-19T03:48:46.574Z,12.77
2018-04-19T03:51:14.041Z,14.50
2018-04-19T03:53:41.491Z,11.63
2018-04-19T03:56:08.959Z,15.13
2018-04-19T03:58:36.406Z,12.40
2018-04-19T04:01:03.908Z,13.95
2018-04-19T04:03:32.069Z,12.77
2018-04-19T04:05:59.513Z,15.03
2018-04-19T04:08:26.966Z,14.07
2018-04-19T04:10:56.098Z,12.85
2018-04-19T04:13:23.539Z,16.00
2018-04-19T04:15:51.020Z,16.03
2018-04-19T04:18:30.318Z,13.60
2018-04-19T04:21:09.791Z,13.13
2018-04-19T04:23:49.133Z,13.83
2018-04-19T04:26:18.079Z,16.43
2018-04-19T04:28:45.523Z,13.93
2018-04-19T04:31:12.993Z,13.10
2018-04-19T04:33:40.421Z,13.40
2018-04-19T04:36:08.628Z,13.20
2018-04-19T04:38:36.075Z,12.67
2018-04-19T04:41:03.543Z,13.33
2018-04-19T04:43:30.969Z,14.90
2018-04-19T04:45:59.199Z,11.23
2018-04-19T04:48:26.638Z,13.50
2018-04-19T04:50:54.096Z,13.43
2018-04-19T04:53:21.549Z,13.43
2018-04-19T04:55:49.027Z,13.17
2018-04-19T04:58:16.481Z,12.60
2018-04-19T05:00:43.963Z,13.60
2018-04-19T05:03:11.415Z,12.83
2018-04-19T05:05:38.893Z,13.37
2018-04-19T05:08:06.339Z,13.53
2018-04-19T05:10:33.790Z,14.00
2018-04-19T05:13:01.346Z,14.80
2018-04-19T05:15:28.787Z,14.40
2018-04-19T05:17:56.251Z,14.03
2018-04-19T05:20:23.775Z,16.60
2018-04-19T05:22:51.186Z,15.23
2018-04-19T05:25:18.618Z,35.17
2018-04-19T05:27:46.084Z,14.20
2018-04-19T05:30:13.557Z,37.70
2018-04-19T05:32:41.007Z,38.60
2018-04-19T05:35:08.560Z,32.00
2018-04-19T05:37:36.002Z,22.90
2018-04-19T05:40:03.464Z,16.57
2018-04-19T05:42:30.927Z,15.60
2018-04-19T05:44:58.391Z,18.30
2018-04-19T05:47:25.855Z,11.87
2018-04-19T05:49:53.306Z,14.35
2018-04-19T05:52:22.272Z,14.43
2018-04-19T05:54:50.951Z,14.50
2018-04-19T05:57:18.407Z,16.40
2018-04-19T05:59:47.104Z,14.80
2018-04-19T06:02:14.533Z,13.83
2018-04-19T06:04:41.974Z,19.13
2018-04-19T06:07:10.202Z,14.53
2018-04-19T06:09:37.648Z,14.73
2018-04-19T06:12:05.107Z,18.12
2018-04-19T06:14:32.567Z,15.07
2018-04-19T06:17:00.031Z,14.83
2018-04-19T06:19:27.463Z,16.70
2018-04-19T06:21:54.908Z,14.20
2018-04-19T06:24:22.339Z,16.60
2018-04-19T06:26:50.572Z,13.93
2018-04-19T06:29:18.021Z,15.00
2018-04-19T06:31:45.476Z,15.53
2018-04-19T06:34:12.919Z,16.52
2018-04-19T06:36:40.387Z,16.23
2018-04-19T06:39:07.833Z,16.70
2018-04-19T06:41:35.287Z,17.90
2018-04-19T06:44:02.735Z,15.70
2018-04-19T06:46:30.208Z,14.77
2018-04-19T06:48:57.655Z,17.73
2018-04-19T06:51:25.107Z,17.77
2018-04-19T06:53:52.550Z,15.40
2018-04-19T06:56:20.768Z,16.52
2018-04-19T06:58:48.757Z,17.50
2018-04-19T07:01:16.215Z,18.73
2018-04-19T07:03:43.668Z,18.53
2018-04-19T07:06:11.111Z,19.00
2018-04-19T07:08:38.557Z,18.50
2018-04-19T07:11:06.016Z,22.63
2018-04-19T07:13:33.470Z,23.13
2018-04-19T07:16:00.905Z,21.20
2018-04-19T07:18:28.349Z,24.60
2018-04-19T07:20:56.563Z,17.70
2018-04-19T07:23:24.027Z,22.80
2018-04-19T07:25:51.507Z,16.63
2018-04-19T07:28:18.944Z,18.90
2018-04-19T07:30:46.393Z,16.92
2018-04-19T07:33:13.839Z,19.50
2018-04-19T07:35:41.273Z,19.67
2018-04-19T07:38:09.505Z,15.30
2018-04-19T07:40:36.977Z,18.17
2018-04-19T07:43:04.451Z,18.37
2018-04-19T07:45:32.696Z,14.90
2018-04-19T07:48:00.151Z,16.27
2018-04-19T07:50:27.599Z,13.27
2018-04-19T07:55:48.528Z,12.37
2018-04-19T07:58:16.880Z,14.47
2018-04-19T08:00:45.226Z,11.87
2018-04-19T08:03:13.558Z,14.33
2018-04-19T08:05:40.990Z,11.07
2018-04-19T08:08:08.467Z,15.30
2018-04-19T08:10:35.912Z,10.80
2018-04-19T08:13:03.462Z,14.23
2018-04-19T08:15:30.901Z,9.50
2018-04-19T08:17:58.590Z,11.00
2018-04-19T08:20:26.955Z,8.93
2018-04-19T08:22:54.393Z,8.83
2018-04-19T08:25:22.596Z,11.00
2018-04-19T08:27:50.042Z,9.57
2018-04-19T08:30:17.488Z,9.30
2018-04-19T08:32:44.970Z,10.83
2018-04-19T08:35:12.480Z,10.30
2018-04-19T08:37:40.706Z,12.70
2018-04-19T08:40:08.217Z,9.80
2018-04-19T08:42:43.034Z,8.73
2018-04-19T08:45:10.856Z,9.38
2018-04-19T08:47:38.297Z,8.00
2018-04-19T08:50:05.736Z,7.93
2018-04-19T08:52:33.198Z,10.77
2018-04-19T08:55:01.398Z,7.73
2018-04-19T08:57:28.830Z,9.87
2018-04-19T08:59:57.046Z,7.03
2018-04-19T09:02:24.499Z,10.03
2018-04-19T09:04:52.715Z,7.80
2018-04-19T09:07:20.148Z,6.87
2018-04-19T09:09:47.601Z,11.03
2018-04-19T09:12:15.046Z,7.87
2018-04-19T09:14:42.507Z,8.10
2018-04-19T09:17:09.951Z,9.17
2018-04-19T09:19:37.408Z,6.70
2018-04-19T09:22:04.843Z,10.73
2018-04-19T09:24:33.190Z,13.50
2018-04-19T09:27:00.632Z,8.33
2018-04-19T09:29:28.094Z,9.50
2018-04-19T09:31:55.557Z,7.87
2018-04-19T09:34:23.064Z,9.40
2018-04-19T09:36:50.482Z,8.00
2018-04-19T09:39:17.932Z,5.30
2018-04-19T09:41:45.595Z,5.60
2018-04-19T09:44:13.030Z,13.43
2018-04-19T09:46:40.540Z,6.60
2018-04-19T09:49:08.729Z,5.20
2018-04-19T09:51:36.181Z,6.93
2018-04-19T09:54:03.952Z,5.03
2018-04-19T09:56:31.287Z,9.20
2018-04-19T09:59:10.530Z,5.23
2018-04-19T10:01:44.559Z,5.90
2018-04-19T10:04:14.016Z,10.02
2018-04-19T10:06:41.406Z,4.67
2018-04-19T10:09:08.930Z,5.10
2018-04-19T10:11:36.453Z,4.80
2018-04-19T10:14:03.936Z,6.13
2018-04-19T10:16:31.399Z,5.90
2018-04-19T10:18:59.780Z,4.20
2018-04-19T10:21:27.268Z,5.93
2018-04-19T10:23:56.175Z,4.47
2018-04-19T10:26:23.833Z,4.20
2018-04-19T10:28:52.303Z,6.37
2018-04-19T10:31:20.518Z,4.33
2018-04-19T10:33:47.970Z,5.33
2018-04-19T10:36:15.401Z,4.50
2018-04-19T10:38:42.845Z,5.97
2018-04-19T10:41:11.097Z,5.93
2018-04-19T10:43:38.500Z,4.57
2018-04-19T10:46:05.944Z,8.03
2018-04-19T10:48:33.388Z,6.32
2018-04-19T10:51:01.597Z,5.53
2018-04-19T10:53:29.043Z,7.40
2018-04-19T10:55:56.486Z,4.27
2018-04-19T10:58:23.919Z,4.23
2018-04-19T11:00:51.375Z,4.63
2018-04-19T11:03:18.815Z,5.40
2018-04-19T11:05:46.265Z,4.30
2018-04-19T11:08:13.733Z,6.20
2018-04-19T11:10:41.187Z,8.07
2018-04-19T11:13:08.631Z,7.93
2018-04-19T11:15:36.068Z,5.57
2018-04-19T11:18:03.511Z,5.10
2018-04-19T11:20:30.951Z,6.33
2018-04-19T11:22:59.150Z,3.93
2018-04-19T11:25:26.595Z,6.10
2018-04-19T11:27:54.038Z,9.03
2018-04-19T11:30:22.262Z,3.83
2018-04-19T11:32:49.721Z,10.73
2018-04-19T11:35:17.414Z,3.87
2018-04-19T11:37:44.859Z,5.93
2018-04-19T11:40:12.304Z,4.00
2018-04-19T11:42:39.750Z,4.43
2018-04-19T11:45:07.190Z,4.60
2018-04-19T11:47:34.629Z,4.43
2018-04-19T11:50:02.071Z,3.83
2018-04-19T11:52:30.263Z,7.43
2018-04-19T11:54:57.704Z,13.05
2018-04-19T11:57:25.929Z,4.30
2018-04-19T11:59:53.361Z,9.57
2018-04-19T12:02:20.832Z,4.60
2018-04-19T12:04:48.276Z,5.43
2018-04-19T12:07:15.711Z,6.03
2018-04-19T12:09:43.907Z,6.30
2018-04-19T12:12:11.349Z,13.50
2018-04-19T12:14:38.770Z,4.50
2018-04-19T12:17:06.219Z,6.55
2018-04-19T12:19:33.662Z,6.53
2018-04-19T12:22:01.099Z,7.80
2018-04-19T12:24:28.636Z,7.80
2018-04-19T12:26:56.855Z,8.47
2018-04-19T12:29:24.287Z,6.57
2018-04-19T12:31:51.720Z,6.70
2018-04-19T12:34:19.152Z,5.40
2018-04-19T12:36:46.597Z,10.55
2018-04-19T12:39:14.810Z,7.10
2018-04-19T12:41:43.017Z,10.23
2018-04-19T12:44:10.458Z,7.23
2018-04-19T12:46:37.915Z,5.90
2018-04-19T12:49:05.348Z,8.53
2018-04-19T12:51:33.551Z,6.83
2018-04-19T12:54:01.040Z,8.70
2018-04-19T12:56:28.537Z,7.37
2018-04-19T12:58:55.942Z,6.37
2018-04-19T13:01:23.386Z,10.47
2018-04-19T13:03:50.820Z,7.60
2018-04-19T13:06:18.279Z,7.80
2018-04-19T13:08:45.719Z,8.70
2018-04-19T13:11:13.920Z,7.63
2018-04-19T13:13:41.369Z,8.90
2018-04-19T13:16:08.806Z,30.97
2018-04-19T13:18:37.022Z,8.53
2018-04-19T13:21:04.466Z,10.70
2018-04-19T13:23:33.372Z,10.97
2018-04-19T13:26:00.821Z,14.47
2018-04-19T13:28:28.269Z,9.93
2018-04-19T13:30:55.723Z,9.93
2018-04-19T13:33:23.181Z,11.90
2018-04-19T13:35:50.619Z,13.13
2018-04-19T13:38:18.856Z,11.40
2018-04-19T13:40:46.286Z,11.60
2018-04-19T13:43:13.759Z,10.53
2018-04-19T13:45:41.199Z,11.97
2018-04-19T13:48:08.665Z,10.73
2018-04-19T13:50:36.113Z,14.33
2018-04-19T13:53:03.547Z,11.10
2018-04-19T13:55:30.983Z,14.27
2018-04-19T13:57:58.434Z,12.98
2018-04-19T14:00:25.877Z,8.67
2018-04-19T14:02:53.313Z,11.40
2018-04-19T14:05:20.755Z,7.47
2018-04-19T14:07:48.207Z,9.07
2018-04-19T14:10:15.653Z,14.67
2018-04-19T14:12:43.860Z,12.47
2018-04-19T14:15:11.288Z,9.83
2018-04-19T14:17:38.728Z,15.40
2018-04-19T14:20:06.950Z,13.40
2018-04-19T14:22:34.402Z,13.23
2018-04-19T14:25:01.880Z,12.03
2018-04-19T14:27:29.319Z,13.87
2018-04-19T14:29:57.535Z,9.13
2018-04-19T14:32:24.981Z,14.97
2018-04-19T14:34:52.413Z,11.80
2018-04-19T14:37:19.861Z,12.63
2018-04-19T14:39:47.314Z,17.50
2018-04-19T14:42:14.745Z,17.67
2018-04-19T14:44:42.210Z,21.93
2018-04-19T14:47:09.656Z,11.43
2018-04-19T14:49:37.921Z,14.50
2018-04-19T14:52:05.343Z,14.03
2018-04-19T14:54:32.819Z,16.20
2018-04-19T14:57:00.263Z,15.17
2018-04-19T14:59:29.239Z,12.70
2018-04-19T15:01:56.675Z,9.83
2018-04-19T15:04:24.123Z,11.87
2018-04-19T15:06:51.552Z,10.00
2018-04-19T15:09:20.039Z,14.07
2018-04-19T15:11:47.428Z,11.10
2018-04-19T15:14:14.881Z,13.33
2018-04-19T15:16:42.342Z,12.02
2018-04-19T15:19:09.783Z,11.50
2018-04-19T15:21:37.223Z,10.80
2018-04-19T15:24:05.441Z,12.93
2018-04-19T15:26:32.882Z,10.50
2018-04-19T15:29:00.341Z,15.20
2018-04-19T15:31:27.800Z,18.23
2018-04-19T15:33:55.249Z,19.03
2018-04-19T15:36:23.471Z,12.17
2018-04-19T15:38:52.492Z,18.50
2018-04-19T15:41:20.731Z,14.57
2018-04-19T15:43:48.167Z,13.23
2018-04-19T15:46:15.615Z,18.10
2018-04-19T15:48:43.071Z,12.80
2018-04-19T15:51:10.523Z,11.63
2018-04-19T15:53:37.955Z,15.57
2018-04-19T15:56:06.170Z,13.60
2018-04-19T15:58:33.618Z,13.23
2018-04-19T16:01:01.069Z,15.68
2018-04-19T16:03:28.509Z,12.53
2018-04-19T16:05:55.952Z,12.70
2018-04-19T16:08:24.154Z,12.20
2018-04-19T16:10:53.279Z,19.40
2018-04-19T16:13:20.716Z,11.50
2018-04-19T16:15:48.155Z,10.83
2018-04-19T16:18:15.590Z,12.33
2018-04-19T16:20:43.801Z,22.40
2018-04-19T16:23:11.250Z,13.80
2018-04-19T16:25:38.693Z,12.10
2018-04-19T16:28:06.896Z,9.90
2018-04-19T16:30:34.355Z,13.90
2018-04-19T16:33:01.804Z,14.93
2018-04-19T16:35:29.255Z,11.83
2018-04-19T16:37:56.690Z,15.20
2018-04-19T16:40:24.937Z,14.17
2018-04-19T16:42:52.363Z,10.93
2018-04-19T16:45:19.811Z,11.50
2018-04-19T16:47:47.254Z,13.03
2018-04-19T16:50:15.647Z,8.07
2018-04-19T16:52:43.055Z,9.90
2018-04-19T16:55:11.259Z,9.47
2018-04-19T16:57:38.715Z,14.73
2018-04-19T17:00:06.194Z,17.60
2018-04-19T17:02:33.615Z,14.67
2018-04-19T17:05:01.829Z,13.43
2018-04-19T17:07:29.266Z,9.38
2018-04-19T17:09:56.722Z,12.93
2018-04-19T17:12:24.932Z,10.80
2018-04-19T17:14:52.367Z,16.50
2018-04-19T17:17:19.822Z,8.33
2018-04-19T17:19:47.261Z,11.67
2018-04-19T17:22:14.721Z,10.80
2018-04-19T17:24:42.168Z,11.70
2018-04-19T17:27:10.393Z,13.40
2018-04-19T17:29:37.836Z,8.57
2018-04-19T17:32:05.290Z,8.10
2018-04-19T17:34:32.769Z,11.97
2018-04-19T17:37:00.197Z,10.73
2018-04-19T17:39:27.655Z,7.60
2018-04-19T17:41:55.096Z,9.53
2018-04-19T17:44:22.548Z,7.60
2018-04-19T17:46:50.740Z,9.43
2018-04-19T17:49:18.183Z,7.37
2018-04-19T17:51:45.685Z,8.63
2018-04-19T17:54:13.135Z,13.13
2018-04-19T17:56:40.590Z,8.40
2018-04-19T17:59:08.029Z,8.80
2018-04-19T18:01:35.641Z,7.63
2018-04-19T18:04:03.062Z,9.80
2018-04-19T18:06:30.521Z,12.07
2018-04-19T18:08:57.987Z,6.77
2018-04-19T18:11:25.445Z,8.90
2018-04-19T18:13:53.809Z,7.50
2018-04-19T18:16:21.255Z,8.10
2018-04-19T18:18:48.696Z,7.90
2018-04-19T18:21:16.134Z,7.50
2018-04-19T18:23:44.338Z,9.30
2018-04-19T18:26:11.779Z,7.30
2018-04-19T18:28:39.214Z,14.17
2018-04-19T18:31:06.751Z,13.70
2018-04-19T18:33:34.191Z,9.30
2018-04-19T18:36:01.646Z,7.33
2018-04-19T18:38:29.075Z,7.80
2018-04-19T18:40:56.538Z,9.03
2018-04-19T18:43:23.963Z,6.93
2018-04-19T18:45:52.159Z,6.40
2018-04-19T18:48:20.367Z,10.33
2018-04-19T18:50:47.836Z,10.93
2018-04-19T18:53:15.373Z,8.20
2018-04-19T18:55:42.823Z,6.73
2018-04-19T18:58:10.276Z,10.07
2018-04-19T19:00:37.742Z,9.47
2018-04-19T19:03:05.184Z,10.20
2018-04-19T19:05:32.631Z,6.93
2018-04-19T19:08:00.835Z,8.30
2018-04-19T19:10:28.270Z,9.77
2018-04-19T19:12:55.724Z,8.63
2018-04-19T19:29:02.319Z,12.63
2018-04-19T19:31:29.756Z,8.47
2018-04-19T19:33:57.181Z,10.05
2018-04-19T19:36:24.624Z,8.37
2018-04-19T19:38:52.880Z,13.20
2018-04-19T19:41:20.323Z,8.60
2018-04-19T19:43:47.787Z,8.50
2018-04-19T19:46:15.240Z,12.23
2018-04-19T19:48:42.693Z,11.13
2018-04-19T19:51:10.141Z,8.60
2018-04-19T19:53:37.592Z,10.20
2018-04-19T19:56:05.026Z,9.03
2018-04-19T19:58:33.259Z,14.33
2018-04-19T20:01:00.708Z,11.50
2018-04-19T20:03:28.147Z,10.67
2018-04-19T20:05:55.583Z,8.03
2018-04-19T20:08:23.057Z,15.27
2018-04-19T20:10:50.494Z,11.83
2018-04-19T20:13:18.710Z,8.63
2018-04-19T20:15:46.147Z,10.47
2018-04-19T20:18:13.602Z,12.57
2018-04-19T20:20:41.103Z,11.30
2018-04-19T20:23:08.520Z,12.93
2018-04-19T20:25:35.957Z,7.83
2018-04-19T20:28:03.410Z,8.77
2018-04-19T20:30:31.627Z,10.35
2018-04-19T20:32:59.060Z,8.93
2018-04-19T20:35:26.752Z,7.63
2018-04-19T20:37:54.211Z,8.97
2018-04-19T20:40:21.647Z,9.90
2018-04-19T20:42:49.087Z,7.77
2018-04-19T20:45:16.526Z,9.83
2018-04-19T20:47:44.737Z,10.37
2018-04-19T20:50:12.176Z,9.70
2018-04-19T20:52:39.650Z,7.60
2018-04-19T20:55:07.078Z,7.57
2018-04-19T20:57:35.290Z,13.20
2018-04-19T21:00:02.735Z,9.53
2018-04-19T21:02:31.710Z,8.27
2018-04-19T21:04:59.147Z,7.60
2018-04-19T21:07:27.350Z,8.03
2018-04-19T21:09:54.795Z,7.10
2018-04-19T21:12:22.996Z,7.83
2018-04-19T21:14:50.436Z,13.23
2018-04-19T21:17:17.866Z,9.83
2018-04-19T21:19:46.107Z,10.03
2018-04-19T21:22:13.551Z,13.53
2018-04-19T21:24:42.627Z,14.55
2018-04-19T21:27:10.061Z,9.90
2018-04-19T21:29:38.266Z,9.53
2018-04-19T21:32:05.698Z,11.23
2018-04-19T21:34:33.154Z,7.90
2018-04-19T21:37:01.348Z,9.18
2018-04-19T21:39:29.563Z,8.00
2018-04-19T21:41:57.056Z,10.20
2018-04-19T21:44:24.454Z,7.83
2018-04-19T21:46:51.953Z,7.60
2018-04-19T21:49:20.911Z,8.30
2018-04-19T21:51:48.363Z,7.53
2018-04-19T21:54:15.826Z,10.53
2018-04-19T21:56:43.258Z,7.30
2018-04-19T21:59:10.699Z,7.03
2018-04-19T22:01:38.902Z,7.90
2018-04-19T22:04:06.349Z,9.07
2018-04-19T22:06:33.788Z,7.70
2018-04-19T22:09:01.265Z,8.50
2018-04-19T22:11:28.702Z,9.00
2018-04-19T22:13:56.139Z,7.33
2018-04-19T22:16:24.354Z,8.20
2018-04-19T22:18:51.792Z,7.87
2018-04-19T22:21:19.241Z,7.20
2018-04-19T22:23:47.447Z,10.00
2018-04-19T22:26:14.885Z,9.73
2018-04-19T22:28:42.322Z,8.97
2018-04-19T22:31:10.545Z,13.47
2018-04-19T22:33:37.995Z,10.53
2018-04-19T22:36:05.443Z,8.97
2018-04-19T22:38:32.879Z,8.30
2018-04-19T22:41:01.109Z,11.40
2018-04-19T22:43:28.550Z,11.35
2018-04-19T22:45:56.011Z,8.90
2018-04-19T22:48:23.453Z,8.57
2018-04-19T22:50:50.911Z,10.17
2018-04-19T22:53:18.346Z,11.20
2018-04-19T22:55:45.803Z,8.32
2018-04-19T22:58:13.239Z,9.47
2018-04-19T23:00:41.454Z,8.67
2018-04-19T23:03:08.910Z,14.00
2018-04-19T23:05:36.364Z,9.63
2018-04-19T23:08:03.808Z,11.03
2018-04-19T23:10:31.262Z,7.93
2018-04-19T23:12:59.471Z,7.27
2018-04-19T23:15:26.930Z,7.63
2018-04-19T23:17:54.381Z,7.87
2018-04-19T23:20:21.824Z,8.03
2018-04-19T23:22:49.268Z,7.90
2018-04-19T23:25:16.718Z,8.83
2018-04-19T23:27:44.934Z,8.23
2018-04-19T23:30:12.380Z,7.67
2018-04-19T23:32:39.830Z,10.23
2018-04-19T23:35:07.421Z,8.13
2018-04-19T23:37:34.909Z,7.23
2018-04-19T23:40:02.322Z,7.80
2018-04-19T23:42:29.771Z,8.13
2018-04-19T23:44:57.207Z,8.07
2018-04-19T23:47:24.662Z,11.03
2018-04-19T23:49:52.100Z,8.57
2018-04-19T23:52:20.314Z,11.20
2018-04-19T23:54:47.758Z,7.80
2018-04-19T23:57:15.191Z,8.97
2018-04-19T23:59:43.399Z,7.53
